sensor_id;sensor_type;location;lat;lon;timestamp;P1;durP1;ratioP1;P2;durP2;ratioP2
12980;SDS011;6555;50.468;8.480;2023-04-25T00:00:13;3.83;;;2.57;;
12980;SDS011;6555;50.468;8.480;2023-04-25T00:05:35;3.23;;;2.93;;
12980;SDS011;6555;50.468;8.480;2023-04-25T00:11:05;3.47;;;3.03;;
12980;SDS011;6555;50.468;8.480;2023-04-25T00:16:21;3.27;;;2.63;;
12980;SDS011;6555;50.468;8.480;2023-04-25T00:21:57;3.07;;;2.77;;
12980;SDS011;6555;50.468;8.480;2023-04-25T00:27:17;2.90;;;2.53;;
12980;SDS011;6555;50.468;8.480;2023-04-25T00:32:47;2.97;;;2.67;;
12980;SDS011;6555;50.468;8.480;2023-04-25T00:38:06;3.20;;;2.90;;
12980;SDS011;6555;50.468;8.480;2023-04-25T00:43:39;3.57;;;2.97;;
12980;SDS011;6555;50.468;8.480;2023-04-25T00:49:02;3.30;;;2.77;;
12980;SDS011;6555;50.468;8.480;2023-04-25T00:54:38;2.73;;;2.53;;
12980;SDS011;6555;50.468;8.480;2023-04-25T01:00:02;3.00;;;2.80;;
12980;SDS011;6555;50.468;8.480;2023-04-25T01:05:54;3.83;;;3.20;;
12980;SDS011;6555;50.468;8.480;2023-04-25T01:11:28;3.47;;;3.17;;
12980;SDS011;6555;50.468;8.480;2023-04-25T01:16:46;3.93;;;2.50;;
12980;SDS011;6555;50.468;8.480;2023-04-25T01:22:22;3.20;;;2.70;;
12980;SDS011;6555;50.468;8.480;2023-04-25T01:27:39;5.10;;;2.90;;
12980;SDS011;6555;50.468;8.480;2023-04-25T01:33:12;3.63;;;3.17;;
12980;SDS011;6555;50.468;8.480;2023-04-25T01:38:33;3.40;;;3.10;;
12980;SDS011;6555;50.468;8.480;2023-04-25T01:44:08;4.13;;;2.80;;
12980;SDS011;6555;50.468;8.480;2023-04-25T01:49:48;2.87;;;2.57;;
12980;SDS011;6555;50.468;8.480;2023-04-25T01:55:22;2.93;;;2.50;;
12980;SDS011;6555;50.468;8.480;2023-04-25T02:00:42;2.93;;;2.50;;
12980;SDS011;6555;50.468;8.480;2023-04-25T02:06:21;3.20;;;2.80;;
12980;SDS011;6555;50.468;8.480;2023-04-25T02:11:39;3.73;;;3.30;;
12980;SDS011;6555;50.468;8.480;2023-04-25T02:17:30;3.47;;;2.20;;
12980;SDS011;6555;50.468;8.480;2023-04-25T02:22:48;3.07;;;2.77;;
12980;SDS011;6555;50.468;8.480;2023-04-25T02:28:21;3.10;;;2.73;;
12980;SDS011;6555;50.468;8.480;2023-04-25T02:33:41;3.93;;;2.60;;
12980;SDS011;6555;50.468;8.480;2023-04-25T02:39:11;4.77;;;2.70;;
12980;SDS011;6555;50.468;8.480;2023-04-25T02:44:30;3.93;;;2.40;;
12980;SDS011;6555;50.468;8.480;2023-04-25T02:50:00;3.40;;;2.50;;
12980;SDS011;6555;50.468;8.480;2023-04-25T02:55:18;5.00;;;2.87;;
12980;SDS011;6555;50.468;8.480;2023-04-25T03:00:50;4.90;;;2.60;;
12980;SDS011;6555;50.468;8.480;2023-04-25T03:06:06;3.13;;;2.40;;
12980;SDS011;6555;50.468;8.480;2023-04-25T03:11:36;3.13;;;2.20;;
12980;SDS011;6555;50.468;8.480;2023-04-25T03:16:56;2.67;;;2.00;;
12980;SDS011;6555;50.468;8.480;2023-04-25T03:22:30;2.50;;;2.00;;
12980;SDS011;6555;50.468;8.480;2023-04-25T03:27:50;2.97;;;1.70;;
12980;SDS011;6555;50.468;8.480;2023-04-25T03:33:22;3.00;;;1.60;;
12980;SDS011;6555;50.468;8.480;2023-04-25T03:38:39;3.17;;;1.70;;
12980;SDS011;6555;50.468;8.480;2023-04-25T03:44:14;3.43;;;1.97;;
12980;SDS011;6555;50.468;8.480;2023-04-25T03:49:33;3.77;;;2.10;;
12980;SDS011;6555;50.468;8.480;2023-04-25T03:55:05;2.03;;;1.63;;
12980;SDS011;6555;50.468;8.480;2023-04-25T04:00:22;2.53;;;1.90;;
12980;SDS011;6555;50.468;8.480;2023-04-25T04:05:53;2.03;;;1.77;;
12980;SDS011;6555;50.468;8.480;2023-04-25T04:11:13;3.67;;;1.73;;
12980;SDS011;6555;50.468;8.480;2023-04-25T04:16:43;2.83;;;1.73;;
12980;SDS011;6555;50.468;8.480;2023-04-25T04:22:06;3.20;;;2.00;;
12980;SDS011;6555;50.468;8.480;2023-04-25T04:27:39;3.47;;;1.77;;
12980;SDS011;6555;50.468;8.480;2023-04-25T04:33:19;3.07;;;1.60;;
12980;SDS011;6555;50.468;8.480;2023-04-25T04:45:09;3.00;;;1.57;;
12980;SDS011;6555;50.468;8.480;2023-04-25T04:50:51;1.87;;;1.50;;
12980;SDS011;6555;50.468;8.480;2023-04-25T04:56:20;2.27;;;1.50;;
12980;SDS011;6555;50.468;8.480;2023-04-25T05:02:10;2.77;;;1.77;;
12980;SDS011;6555;50.468;8.480;2023-04-25T05:07:49;2.23;;;1.27;;
12980;SDS011;6555;50.468;8.480;2023-04-25T05:13:55;1.67;;;1.43;;
12980;SDS011;6555;50.468;8.480;2023-04-25T05:19:23;2.60;;;1.60;;
12980;SDS011;6555;50.468;8.480;2023-04-25T05:24:58;2.37;;;1.83;;
12980;SDS011;6555;50.468;8.480;2023-04-25T05:30:45;2.03;;;1.70;;
12980;SDS011;6555;50.468;8.480;2023-04-25T05:36:26;3.23;;;1.80;;
12980;SDS011;6555;50.468;8.480;2023-04-25T05:41:43;2.17;;;1.53;;
12980;SDS011;6555;50.468;8.480;2023-04-25T05:47:37;2.50;;;1.70;;
12980;SDS011;6555;50.468;8.480;2023-04-25T05:53:08;3.43;;;2.00;;
12980;SDS011;6555;50.468;8.480;2023-04-25T05:58:40;2.77;;;1.50;;
12980;SDS011;6555;50.468;8.480;2023-04-25T06:03:58;2.80;;;2.17;;
12980;SDS011;6555;50.468;8.480;2023-04-25T06:09:28;2.97;;;1.83;;
12980;SDS011;6555;50.468;8.480;2023-04-25T06:14:45;2.90;;;2.10;;
12980;SDS011;6555;50.468;8.480;2023-04-25T06:20:16;2.07;;;1.80;;
12980;SDS011;6555;50.468;8.480;2023-04-25T06:25:34;2.87;;;2.40;;
12980;SDS011;6555;50.468;8.480;2023-04-25T06:31:05;3.17;;;2.23;;
12980;SDS011;6555;50.468;8.480;2023-04-25T06:36:25;1.90;;;1.70;;
12980;SDS011;6555;50.468;8.480;2023-04-25T06:41:56;3.47;;;2.40;;
12980;SDS011;6555;50.468;8.480;2023-04-25T06:47:33;3.53;;;2.27;;
12980;SDS011;6555;50.468;8.480;2023-04-25T06:53:05;2.40;;;1.90;;
12980;SDS011;6555;50.468;8.480;2023-04-25T06:58:29;3.87;;;1.90;;
12980;SDS011;6555;50.468;8.480;2023-04-25T07:04:11;1.97;;;1.73;;
12980;SDS011;6555;50.468;8.480;2023-04-25T07:09:32;2.10;;;1.80;;
12980;SDS011;6555;50.468;8.480;2023-04-25T07:15:01;2.60;;;2.07;;
12980;SDS011;6555;50.468;8.480;2023-04-25T07:20:26;2.87;;;2.30;;
12980;SDS011;6555;50.468;8.480;2023-04-25T07:25:57;3.00;;;2.20;;
12980;SDS011;6555;50.468;8.480;2023-04-25T07:31:43;4.07;;;2.20;;
12980;SDS011;6555;50.468;8.480;2023-04-25T07:37:14;2.70;;;1.90;;
12980;SDS011;6555;50.468;8.480;2023-04-25T07:42:43;2.83;;;2.07;;
12980;SDS011;6555;50.468;8.480;2023-04-25T07:48:20;2.53;;;1.87;;
12980;SDS011;6555;50.468;8.480;2023-04-25T07:53:38;2.97;;;2.00;;
12980;SDS011;6555;50.468;8.480;2023-04-25T07:59:10;2.57;;;1.90;;
12980;SDS011;6555;50.468;8.480;2023-04-25T08:04:29;3.53;;;2.10;;
12980;SDS011;6555;50.468;8.480;2023-04-25T08:10:00;2.43;;;2.23;;
12980;SDS011;6555;50.468;8.480;2023-04-25T08:15:19;2.23;;;2.00;;
12980;SDS011;6555;50.468;8.480;2023-04-25T08:20:49;2.10;;;1.90;;
12980;SDS011;6555;50.468;8.480;2023-04-25T08:26:09;2.30;;;2.07;;
12980;SDS011;6555;50.468;8.480;2023-04-25T08:31:50;2.37;;;1.80;;
12980;SDS011;6555;50.468;8.480;2023-04-25T08:37:12;2.97;;;1.70;;
12980;SDS011;6555;50.468;8.480;2023-04-25T08:42:52;2.47;;;1.97;;
12980;SDS011;6555;50.468;8.480;2023-04-25T08:48:14;2.10;;;1.90;;
12980;SDS011;6555;50.468;8.480;2023-04-25T08:53:45;2.60;;;2.03;;
12980;SDS011;6555;50.468;8.480;2023-04-25T08:59:17;5.33;;;1.87;;
12980;SDS011;6555;50.468;8.480;2023-04-25T09:04:50;1.97;;;1.87;;
12980;SDS011;6555;50.468;8.480;2023-04-25T09:10:14;3.97;;;1.90;;
12980;SDS011;6555;50.468;8.480;2023-04-25T09:15:52;1.60;;;1.50;;
12980;SDS011;6555;50.468;8.480;2023-04-25T09:21:36;2.13;;;1.40;;
12980;SDS011;6555;50.468;8.480;2023-04-25T09:27:08;2.47;;;1.57;;
12980;SDS011;6555;50.468;8.480;2023-04-25T09:32:34;2.43;;;1.50;;
12980;SDS011;6555;50.468;8.480;2023-04-25T09:38:10;2.30;;;1.50;;
12980;SDS011;6555;50.468;8.480;2023-04-25T09:43:34;1.97;;;1.70;;
12980;SDS011;6555;50.468;8.480;2023-04-25T09:49:10;2.00;;;1.37;;
12980;SDS011;6555;50.468;8.480;2023-04-25T09:54:41;2.13;;;1.37;;
12980;SDS011;6555;50.468;8.480;2023-04-25T10:00:19;1.73;;;1.33;;
12980;SDS011;6555;50.468;8.480;2023-04-25T10:05:53;2.47;;;1.20;;
12980;SDS011;6555;50.468;8.480;2023-04-25T10:11:29;2.67;;;1.40;;
12980;SDS011;6555;50.468;8.480;2023-04-25T10:16:48;2.17;;;1.10;;
12980;SDS011;6555;50.468;8.480;2023-04-25T10:22:20;1.83;;;1.53;;
12980;SDS011;6555;50.468;8.480;2023-04-25T10:27:52;2.80;;;1.40;;
12980;SDS011;6555;50.468;8.480;2023-04-25T10:33:29;3.53;;;1.30;;
12980;SDS011;6555;50.468;8.480;2023-04-25T10:38:51;3.50;;;1.63;;
12980;SDS011;6555;50.468;8.480;2023-04-25T10:44:34;1.30;;;0.93;;
12980;SDS011;6555;50.468;8.480;2023-04-25T10:50:16;1.57;;;1.07;;
12980;SDS011;6555;50.468;8.480;2023-04-25T10:56:08;4.03;;;1.70;;
12980;SDS011;6555;50.468;8.480;2023-04-25T11:01:29;1.90;;;1.20;;
12980;SDS011;6555;50.468;8.480;2023-04-25T11:08:33;2.97;;;1.40;;
12980;SDS011;6555;50.468;8.480;2023-04-25T11:21:07;1.90;;;1.27;;
12980;SDS011;6555;50.468;8.480;2023-04-25T11:27:10;2.53;;;1.60;;
12980;SDS011;6555;50.468;8.480;2023-04-25T11:32:20;3.27;;;1.90;;
12980;SDS011;6555;50.468;8.480;2023-04-25T11:37:27;2.23;;;1.37;;
12980;SDS011;6555;50.468;8.480;2023-04-25T11:42:38;4.20;;;2.07;;
12980;SDS011;6555;50.468;8.480;2023-04-25T11:47:47;1.83;;;1.40;;
12980;SDS011;6555;50.468;8.480;2023-04-25T11:52:56;2.37;;;1.30;;
12980;SDS011;6555;50.468;8.480;2023-04-25T11:58:00;2.70;;;1.50;;
12980;SDS011;6555;50.468;8.480;2023-04-25T12:03:08;2.93;;;1.13;;
12980;SDS011;6555;50.468;8.480;2023-04-25T12:08:17;1.53;;;1.43;;
12980;SDS011;6555;50.468;8.480;2023-04-25T12:13:25;2.97;;;1.60;;
12980;SDS011;6555;50.468;8.480;2023-04-25T12:18:30;2.13;;;1.40;;
12980;SDS011;6555;50.468;8.480;2023-04-25T12:23:45;5.57;;;1.63;;
12980;SDS011;6555;50.468;8.480;2023-04-25T12:28:50;2.53;;;1.67;;
12980;SDS011;6555;50.468;8.480;2023-04-25T12:34:00;3.37;;;1.90;;
12980;SDS011;6555;50.468;8.480;2023-04-25T12:39:06;2.87;;;1.60;;
12980;SDS011;6555;50.468;8.480;2023-04-25T12:44:20;2.53;;;1.60;;
12980;SDS011;6555;50.468;8.480;2023-04-25T12:49:27;3.80;;;1.63;;
12980;SDS011;6555;50.468;8.480;2023-04-25T12:54:34;2.27;;;1.53;;
12980;SDS011;6555;50.468;8.480;2023-04-25T12:59:42;4.00;;;1.37;;
12980;SDS011;6555;50.468;8.480;2023-04-25T13:04:48;4.30;;;1.50;;
12980;SDS011;6555;50.468;8.480;2023-04-25T13:16:27;4.80;;;2.13;;
12980;SDS011;6555;50.468;8.480;2023-04-25T13:21:31;2.63;;;1.43;;
12980;SDS011;6555;50.468;8.480;2023-04-25T13:26:35;1.47;;;1.17;;
12980;SDS011;6555;50.468;8.480;2023-04-25T13:32:12;2.33;;;1.30;;
12980;SDS011;6555;50.468;8.480;2023-04-25T13:37:19;2.23;;;1.50;;
12980;SDS011;6555;50.468;8.480;2023-04-25T13:42:27;1.17;;;1.00;;
12980;SDS011;6555;50.468;8.480;2023-04-25T13:47:35;2.80;;;1.13;;
12980;SDS011;6555;50.468;8.480;2023-04-25T13:52:42;2.87;;;0.93;;
12980;SDS011;6555;50.468;8.480;2023-04-25T13:57:46;1.60;;;1.07;;
12980;SDS011;6555;50.468;8.480;2023-04-25T14:02:53;2.30;;;1.10;;
12980;SDS011;6555;50.468;8.480;2023-04-25T14:07:58;2.03;;;1.30;;
12980;SDS011;6555;50.468;8.480;2023-04-25T14:13:02;1.20;;;1.10;;
12980;SDS011;6555;50.468;8.480;2023-04-25T14:18:11;1.67;;;1.30;;
12980;SDS011;6555;50.468;8.480;2023-04-25T14:23:20;2.27;;;1.43;;
12980;SDS011;6555;50.468;8.480;2023-04-25T14:28:29;2.73;;;1.40;;
12980;SDS011;6555;50.468;8.480;2023-04-25T14:33:42;2.73;;;1.57;;
12980;SDS011;6555;50.468;8.480;2023-04-25T14:39:02;4.13;;;1.80;;
12980;SDS011;6555;50.468;8.480;2023-04-25T14:44:06;3.43;;;1.57;;
12980;SDS011;6555;50.468;8.480;2023-04-25T14:49:14;2.07;;;1.17;;
12980;SDS011;6555;50.468;8.480;2023-04-25T14:54:18;4.87;;;1.47;;
12980;SDS011;6555;50.468;8.480;2023-04-25T14:59:31;1.40;;;1.10;;
12980;SDS011;6555;50.468;8.480;2023-04-25T15:04:42;1.20;;;1.10;;
12980;SDS011;6555;50.468;8.480;2023-04-25T15:09:47;2.60;;;1.40;;
12980;SDS011;6555;50.468;8.480;2023-04-25T15:14:58;1.60;;;1.27;;
12980;SDS011;6555;50.468;8.480;2023-04-25T15:20:05;2.77;;;1.10;;
12980;SDS011;6555;50.468;8.480;2023-04-25T15:25:17;2.13;;;1.47;;
12980;SDS011;6555;50.468;8.480;2023-04-25T15:30:23;2.87;;;1.27;;
12980;SDS011;6555;50.468;8.480;2023-04-25T15:35:31;3.53;;;1.40;;
12980;SDS011;6555;50.468;8.480;2023-04-25T15:40:41;3.07;;;1.20;;
12980;SDS011;6555;50.468;8.480;2023-04-25T15:45:52;1.47;;;0.80;;
12980;SDS011;6555;50.468;8.480;2023-04-25T15:50:58;2.53;;;1.13;;
12980;SDS011;6555;50.468;8.480;2023-04-25T15:56:08;1.33;;;0.97;;
12980;SDS011;6555;50.468;8.480;2023-04-25T16:01:27;1.37;;;0.90;;
12980;SDS011;6555;50.468;8.480;2023-04-25T16:06:38;1.40;;;0.70;;
12980;SDS011;6555;50.468;8.480;2023-04-25T16:18:27;0.97;;;0.93;;
12980;SDS011;6555;50.468;8.480;2023-04-25T16:38:11;0.90;;;0.73;;
12980;SDS011;6555;50.468;8.480;2023-04-25T16:55:01;1.43;;;0.77;;
12980;SDS011;6555;50.468;8.480;2023-04-25T17:00:34;1.57;;;0.90;;
12980;SDS011;6555;50.468;8.480;2023-04-25T17:05:38;1.60;;;1.00;;
12980;SDS011;6555;50.468;8.480;2023-04-25T17:11:01;1.37;;;1.00;;
12980;SDS011;6555;50.468;8.480;2023-04-25T17:16:34;1.87;;;0.90;;
12980;SDS011;6555;50.468;8.480;2023-04-25T17:21:41;1.07;;;1.00;;
12980;SDS011;6555;50.468;8.480;2023-04-25T17:26:55;0.80;;;0.80;;
12980;SDS011;6555;50.468;8.480;2023-04-25T17:32:12;1.57;;;0.70;;
12980;SDS011;6555;50.468;8.480;2023-04-25T17:37:17;0.70;;;0.63;;
12980;SDS011;6555;50.468;8.480;2023-04-25T17:42:22;1.03;;;0.87;;
12980;SDS011;6555;50.468;8.480;2023-04-25T17:47:34;0.63;;;0.63;;
12980;SDS011;6555;50.468;8.480;2023-04-25T17:52:57;1.40;;;1.00;;
12980;SDS011;6555;50.468;8.480;2023-04-25T17:58:09;0.73;;;0.63;;
12980;SDS011;6555;50.468;8.480;2023-04-25T18:03:15;1.63;;;0.80;;
12980;SDS011;6555;50.468;8.480;2023-04-25T18:08:19;1.97;;;1.17;;
12980;SDS011;6555;50.468;8.480;2023-04-25T18:13:24;1.63;;;0.80;;
12980;SDS011;6555;50.468;8.480;2023-04-25T18:18:29;1.03;;;0.70;;
12980;SDS011;6555;50.468;8.480;2023-04-25T18:23:39;1.97;;;0.77;;
12980;SDS011;6555;50.468;8.480;2023-04-25T18:28:43;0.67;;;0.50;;
12980;SDS011;6555;50.468;8.480;2023-04-25T18:33:48;0.70;;;0.70;;
12980;SDS011;6555;50.468;8.480;2023-04-25T18:38:52;2.17;;;0.70;;
12980;SDS011;6555;50.468;8.480;2023-04-25T18:44:15;0.73;;;0.70;;
12980;SDS011;6555;50.468;8.480;2023-04-25T18:49:25;0.97;;;0.73;;
12980;SDS011;6555;50.468;8.480;2023-04-25T18:54:29;2.23;;;1.00;;
12980;SDS011;6555;50.468;8.480;2023-04-25T18:59:33;0.60;;;0.60;;
12980;SDS011;6555;50.468;8.480;2023-04-25T19:04:39;1.23;;;0.60;;
12980;SDS011;6555;50.468;8.480;2023-04-25T19:09:42;1.10;;;0.67;;
12980;SDS011;6555;50.468;8.480;2023-04-25T19:14:46;1.57;;;0.73;;
12980;SDS011;6555;50.468;8.480;2023-04-25T19:19:52;0.50;;;0.50;;
12980;SDS011;6555;50.468;8.480;2023-04-25T19:24:55;0.70;;;0.70;;
12980;SDS011;6555;50.468;8.480;2023-04-25T19:30:11;2.23;;;0.77;;
12980;SDS011;6555;50.468;8.480;2023-04-25T19:35:16;0.70;;;0.50;;
12980;SDS011;6555;50.468;8.480;2023-04-25T19:40:41;0.57;;;0.57;;
12980;SDS011;6555;50.468;8.480;2023-04-25T19:45:45;0.93;;;0.70;;
12980;SDS011;6555;50.468;8.480;2023-04-25T19:50:50;0.73;;;0.67;;
12980;SDS011;6555;50.468;8.480;2023-04-25T20:07:32;0.97;;;0.60;;
12980;SDS011;6555;50.468;8.480;2023-04-25T20:12:42;0.67;;;0.63;;
12980;SDS011;6555;50.468;8.480;2023-04-25T20:17:56;0.60;;;0.57;;
12980;SDS011;6555;50.468;8.480;2023-04-25T20:23:02;2.43;;;1.20;;
12980;SDS011;6555;50.468;8.480;2023-04-25T20:28:48;1.30;;;0.63;;
12980;SDS011;6555;50.468;8.480;2023-04-25T20:34:09;1.37;;;0.60;;
12980;SDS011;6555;50.468;8.480;2023-04-25T20:39:59;0.60;;;0.60;;
12980;SDS011;6555;50.468;8.480;2023-04-25T20:45:10;1.20;;;0.70;;
12980;SDS011;6555;50.468;8.480;2023-04-25T21:02:16;0.33;;;0.33;;
12980;SDS011;6555;50.468;8.480;2023-04-25T21:07:20;0.67;;;0.40;;
12980;SDS011;6555;50.468;8.480;2023-04-25T21:12:32;1.00;;;0.57;;
12980;SDS011;6555;50.468;8.480;2023-04-25T21:17:36;0.60;;;0.60;;
12980;SDS011;6555;50.468;8.480;2023-04-25T21:22:42;0.60;;;0.60;;
12980;SDS011;6555;50.468;8.480;2023-04-25T21:27:56;0.80;;;0.80;;
12980;SDS011;6555;50.468;8.480;2023-04-25T21:33:00;1.37;;;0.67;;
12980;SDS011;6555;50.468;8.480;2023-04-25T21:38:05;0.70;;;0.70;;
12980;SDS011;6555;50.468;8.480;2023-04-25T21:43:11;1.00;;;0.70;;
12980;SDS011;6555;50.468;8.480;2023-04-25T21:48:15;1.53;;;0.80;;
12980;SDS011;6555;50.468;8.480;2023-04-25T21:53:30;0.60;;;0.60;;
12980;SDS011;6555;50.468;8.480;2023-04-25T21:58:37;0.67;;;0.67;;
12980;SDS011;6555;50.468;8.480;2023-04-25T22:03:44;0.90;;;0.43;;
12980;SDS011;6555;50.468;8.480;2023-04-25T22:08:47;0.40;;;0.40;;
12980;SDS011;6555;50.468;8.480;2023-04-25T22:13:55;0.70;;;0.70;;
12980;SDS011;6555;50.468;8.480;2023-04-25T22:19:01;0.87;;;0.87;;
12980;SDS011;6555;50.468;8.480;2023-04-25T22:24:09;1.60;;;0.70;;
12980;SDS011;6555;50.468;8.480;2023-04-25T22:29:14;1.50;;;0.80;;
12980;SDS011;6555;50.468;8.480;2023-04-25T22:34:21;1.10;;;0.57;;
12980;SDS011;6555;50.468;8.480;2023-04-25T22:39:25;1.40;;;0.63;;
12980;SDS011;6555;50.468;8.480;2023-04-25T22:44:30;1.37;;;1.03;;
12980;SDS011;6555;50.468;8.480;2023-04-25T22:49:37;0.60;;;0.60;;
12980;SDS011;6555;50.468;8.480;2023-04-25T22:54:41;0.70;;;0.70;;
12980;SDS011;6555;50.468;8.480;2023-04-25T22:59:46;0.60;;;0.60;;
12980;SDS011;6555;50.468;8.480;2023-04-25T23:04:50;1.00;;;0.70;;
12980;SDS011;6555;50.468;8.480;2023-04-25T23:09:55;0.80;;;0.70;;
12980;SDS011;6555;50.468;8.480;2023-04-25T23:15:01;1.70;;;0.90;;
12980;SDS011;6555;50.468;8.480;2023-04-25T23:20:08;0.70;;;0.70;;
12980;SDS011;6555;50.468;8.480;2023-04-25T23:25:13;0.60;;;0.60;;
12980;SDS011;6555;50.468;8.480;2023-04-25T23:30:18;0.80;;;0.53;;
12980;SDS011;6555;50.468;8.480;2023-04-25T23:35:23;1.60;;;0.83;;
12980;SDS011;6555;50.468;8.480;2023-04-25T23:40:28;1.20;;;0.90;;
12980;SDS011;6555;50.468;8.480;2023-04-25T23:45:35;0.77;;;0.60;;
12980;SDS011;6555;50.468;8.480;2023-04-25T23:50:39;0.87;;;0.60;;
12980;SDS011;6555;50.468;8.480;2023-04-25T23:55:42;1.60;;;0.80;;
